sensor_id;sensor_type;location;lat;lon;timestamp;P1;durP1;ratioP1;P2;durP2;ratioP2
9665;SDS011;4871;52.004;5.924;2023-09-12T00:00:00;22.30;;;19.20;;
9665;SDS011;4871;52.004;5.924;2023-09-12T00:01:03;22.30;;;19.20;;
9665;SDS011;4871;52.004;5.924;2023-09-12T00:02:00;22.30;;;19.20;;
9665;SDS011;4871;52.004;5.924;2023-09-12T00:03:00;22.30;;;19.20;;
9665;SDS011;4871;52.004;5.924;2023-09-12T00:04:00;22.30;;;19.20;;
9665;SDS011;4871;52.004;5.924;2023-09-12T00:05:00;22.30;;;19.20;;
9665;SDS011;4871;52.004;5.924;2023-09-12T00:06:01;22.30;;;19.20;;
9665;SDS011;4871;52.004;5.924;2023-09-12T00:07:00;22.30;;;19.20;;
9665;SDS011;4871;52.004;5.924;2023-09-12T00:08:00;22.30;;;19.20;;
9665;SDS011;4871;52.004;5.924;2023-09-12T00:09:00;22.30;;;19.20;;
9665;SDS011;4871;52.004;5.924;2023-09-12T00:10:00;22.30;;;19.20;;
9665;SDS011;4871;52.004;5.924;2023-09-12T00:11:01;22.30;;;19.20;;
9665;SDS011;4871;52.004;5.924;2023-09-12T00:12:00;22.30;;;19.20;;
9665;SDS011;4871;52.004;5.924;2023-09-12T00:13:00;22.30;;;19.20;;
9665;SDS011;4871;52.004;5.924;2023-09-12T00:14:00;22.30;;;19.20;;
9665;SDS011;4871;52.004;5.924;2023-09-12T00:15:00;22.30;;;19.20;;
9665;SDS011;4871;52.004;5.924;2023-09-12T00:16:00;22.30;;;19.20;;
9665;SDS011;4871;52.004;5.924;2023-09-12T00:17:00;22.30;;;19.20;;
9665;SDS011;4871;52.004;5.924;2023-09-12T00:18:00;20.30;;;17.70;;
9665;SDS011;4871;52.004;5.924;2023-09-12T00:19:00;20.30;;;17.70;;
9665;SDS011;4871;52.004;5.924;2023-09-12T00:20:00;20.30;;;17.70;;
9665;SDS011;4871;52.004;5.924;2023-09-12T00:21:00;20.30;;;17.70;;
9665;SDS011;4871;52.004;5.924;2023-09-12T00:22:00;20.30;;;17.70;;
9665;SDS011;4871;52.004;5.924;2023-09-12T00:23:00;20.30;;;17.70;;
9665;SDS011;4871;52.004;5.924;2023-09-12T00:24:00;20.30;;;17.70;;
9665;SDS011;4871;52.004;5.924;2023-09-12T00:25:00;20.30;;;17.70;;
9665;SDS011;4871;52.004;5.924;2023-09-12T00:26:00;20.30;;;17.70;;
9665;SDS011;4871;52.004;5.924;2023-09-12T00:27:00;20.30;;;17.70;;
9665;SDS011;4871;52.004;5.924;2023-09-12T00:28:00;20.30;;;17.70;;
9665;SDS011;4871;52.004;5.924;2023-09-12T00:29:00;20.30;;;17.70;;
9665;SDS011;4871;52.004;5.924;2023-09-12T00:30:00;20.30;;;17.70;;
9665;SDS011;4871;52.004;5.924;2023-09-12T00:31:00;20.30;;;17.70;;
9665;SDS011;4871;52.004;5.924;2023-09-12T00:32:00;20.30;;;17.70;;
9665;SDS011;4871;52.004;5.924;2023-09-12T00:33:00;20.30;;;17.70;;
9665;SDS011;4871;52.004;5.924;2023-09-12T00:34:00;20.30;;;17.70;;
9665;SDS011;4871;52.004;5.924;2023-09-12T00:35:00;20.30;;;17.70;;
9665;SDS011;4871;52.004;5.924;2023-09-12T00:36:00;20.30;;;17.70;;
9665;SDS011;4871;52.004;5.924;2023-09-12T00:37:00;20.30;;;17.70;;
9665;SDS011;4871;52.004;5.924;2023-09-12T00:38:00;20.30;;;17.70;;
9665;SDS011;4871;52.004;5.924;2023-09-12T00:39:00;20.30;;;17.70;;
9665;SDS011;4871;52.004;5.924;2023-09-12T00:40:00;20.30;;;17.70;;
9665;SDS011;4871;52.004;5.924;2023-09-12T00:41:00;20.30;;;17.70;;
9665;SDS011;4871;52.004;5.924;2023-09-12T00:42:00;20.30;;;17.70;;
9665;SDS011;4871;52.004;5.924;2023-09-12T00:43:00;20.30;;;17.70;;
9665;SDS011;4871;52.004;5.924;2023-09-12T00:44:00;20.30;;;17.70;;
9665;SDS011;4871;52.004;5.924;2023-09-12T00:45:00;20.30;;;17.70;;
9665;SDS011;4871;52.004;5.924;2023-09-12T00:46:00;20.30;;;17.70;;
9665;SDS011;4871;52.004;5.924;2023-09-12T00:47:00;20.30;;;17.70;;
9665;SDS011;4871;52.004;5.924;2023-09-12T00:48:00;16.50;;;14.80;;
9665;SDS011;4871;52.004;5.924;2023-09-12T00:49:00;16.50;;;14.80;;
9665;SDS011;4871;52.004;5.924;2023-09-12T00:50:00;16.50;;;14.80;;
9665;SDS011;4871;52.004;5.924;2023-09-12T00:51:00;16.50;;;14.80;;
9665;SDS011;4871;52.004;5.924;2023-09-12T00:52:02;16.50;;;14.80;;
9665;SDS011;4871;52.004;5.924;2023-09-12T00:53:00;16.50;;;14.80;;
9665;SDS011;4871;52.004;5.924;2023-09-12T00:54:00;16.50;;;14.80;;
9665;SDS011;4871;52.004;5.924;2023-09-12T00:55:00;16.50;;;14.80;;
9665;SDS011;4871;52.004;5.924;2023-09-12T00:56:00;16.50;;;14.80;;
9665;SDS011;4871;52.004;5.924;2023-09-12T00:57:00;16.50;;;14.80;;
9665;SDS011;4871;52.004;5.924;2023-09-12T00:58:00;16.50;;;14.80;;
9665;SDS011;4871;52.004;5.924;2023-09-12T00:59:00;16.50;;;14.80;;
9665;SDS011;4871;52.004;5.924;2023-09-12T01:00:01;16.50;;;14.80;;
9665;SDS011;4871;52.004;5.924;2023-09-12T01:01:00;16.50;;;14.80;;
9665;SDS011;4871;52.004;5.924;2023-09-12T01:02:00;16.50;;;14.80;;
9665;SDS011;4871;52.004;5.924;2023-09-12T01:03:00;16.50;;;14.80;;
9665;SDS011;4871;52.004;5.924;2023-09-12T01:04:01;16.50;;;14.80;;
9665;SDS011;4871;52.004;5.924;2023-09-12T01:05:00;16.50;;;14.80;;
9665;SDS011;4871;52.004;5.924;2023-09-12T01:06:00;16.50;;;14.80;;
9665;SDS011;4871;52.004;5.924;2023-09-12T01:07:00;16.50;;;14.80;;
9665;SDS011;4871;52.004;5.924;2023-09-12T01:08:00;16.50;;;14.80;;
9665;SDS011;4871;52.004;5.924;2023-09-12T01:09:00;16.50;;;14.80;;
9665;SDS011;4871;52.004;5.924;2023-09-12T01:10:00;16.50;;;14.80;;
9665;SDS011;4871;52.004;5.924;2023-09-12T01:11:00;16.50;;;14.80;;
9665;SDS011;4871;52.004;5.924;2023-09-12T01:12:02;16.50;;;14.80;;
9665;SDS011;4871;52.004;5.924;2023-09-12T01:13:00;16.50;;;14.80;;
9665;SDS011;4871;52.004;5.924;2023-09-12T01:14:00;16.50;;;14.80;;
9665;SDS011;4871;52.004;5.924;2023-09-12T01:15:00;16.50;;;14.80;;
9665;SDS011;4871;52.004;5.924;2023-09-12T01:16:00;16.50;;;14.80;;
9665;SDS011;4871;52.004;5.924;2023-09-12T01:17:01;16.50;;;14.80;;
9665;SDS011;4871;52.004;5.924;2023-09-12T01:18:00;14.60;;;13.10;;
9665;SDS011;4871;52.004;5.924;2023-09-12T01:19:00;14.60;;;13.10;;
9665;SDS011;4871;52.004;5.924;2023-09-12T01:20:00;14.60;;;13.10;;
9665;SDS011;4871;52.004;5.924;2023-09-12T01:21:05;14.60;;;13.10;;
9665;SDS011;4871;52.004;5.924;2023-09-12T01:22:03;14.60;;;13.10;;
9665;SDS011;4871;52.004;5.924;2023-09-12T01:23:05;14.60;;;13.10;;
9665;SDS011;4871;52.004;5.924;2023-09-12T01:24:02;14.60;;;13.10;;
9665;SDS011;4871;52.004;5.924;2023-09-12T01:25:07;14.60;;;13.10;;
9665;SDS011;4871;52.004;5.924;2023-09-12T01:26:01;14.60;;;13.10;;
9665;SDS011;4871;52.004;5.924;2023-09-12T01:27:08;14.60;;;13.10;;
9665;SDS011;4871;52.004;5.924;2023-09-12T01:28:01;14.60;;;13.10;;
9665;SDS011;4871;52.004;5.924;2023-09-12T01:29:00;14.60;;;13.10;;
9665;SDS011;4871;52.004;5.924;2023-09-12T01:30:01;14.60;;;13.10;;
9665;SDS011;4871;52.004;5.924;2023-09-12T01:31:00;14.60;;;13.10;;
9665;SDS011;4871;52.004;5.924;2023-09-12T01:32:00;14.60;;;13.10;;
9665;SDS011;4871;52.004;5.924;2023-09-12T01:33:00;14.60;;;13.10;;
9665;SDS011;4871;52.004;5.924;2023-09-12T01:34:07;14.60;;;13.10;;
9665;SDS011;4871;52.004;5.924;2023-09-12T01:35:00;14.60;;;13.10;;
9665;SDS011;4871;52.004;5.924;2023-09-12T01:36:00;14.60;;;13.10;;
9665;SDS011;4871;52.004;5.924;2023-09-12T01:37:00;14.60;;;13.10;;
9665;SDS011;4871;52.004;5.924;2023-09-12T01:38:00;14.60;;;13.10;;
9665;SDS011;4871;52.004;5.924;2023-09-12T01:39:00;14.60;;;13.10;;
9665;SDS011;4871;52.004;5.924;2023-09-12T01:40:00;14.60;;;13.10;;
9665;SDS011;4871;52.004;5.924;2023-09-12T01:41:00;14.60;;;13.10;;
9665;SDS011;4871;52.004;5.924;2023-09-12T01:42:00;14.60;;;13.10;;
9665;SDS011;4871;52.004;5.924;2023-09-12T01:43:00;14.60;;;13.10;;
9665;SDS011;4871;52.004;5.924;2023-09-12T01:44:00;14.60;;;13.10;;
9665;SDS011;4871;52.004;5.924;2023-09-12T01:45:00;14.60;;;13.10;;
9665;SDS011;4871;52.004;5.924;2023-09-12T01:46:00;14.60;;;13.10;;
9665;SDS011;4871;52.004;5.924;2023-09-12T01:47:00;14.60;;;13.10;;
9665;SDS011;4871;52.004;5.924;2023-09-12T01:48:00;11.20;;;9.50;;
9665;SDS011;4871;52.004;5.924;2023-09-12T01:49:00;11.20;;;9.50;;
9665;SDS011;4871;52.004;5.924;2023-09-12T01:50:00;11.20;;;9.50;;
9665;SDS011;4871;52.004;5.924;2023-09-12T01:51:00;11.20;;;9.50;;
9665;SDS011;4871;52.004;5.924;2023-09-12T01:52:00;11.20;;;9.50;;
9665;SDS011;4871;52.004;5.924;2023-09-12T01:53:00;11.20;;;9.50;;
9665;SDS011;4871;52.004;5.924;2023-09-12T01:54:00;11.20;;;9.50;;
9665;SDS011;4871;52.004;5.924;2023-09-12T01:55:00;11.20;;;9.50;;
9665;SDS011;4871;52.004;5.924;2023-09-12T01:56:00;11.20;;;9.50;;
9665;SDS011;4871;52.004;5.924;2023-09-12T01:57:00;11.20;;;9.50;;
9665;SDS011;4871;52.004;5.924;2023-09-12T01:58:00;11.20;;;9.50;;
9665;SDS011;4871;52.004;5.924;2023-09-12T01:59:00;11.20;;;9.50;;
9665;SDS011;4871;52.004;5.924;2023-09-12T02:00:00;11.20;;;9.50;;
9665;SDS011;4871;52.004;5.924;2023-09-12T02:01:00;11.20;;;9.50;;
9665;SDS011;4871;52.004;5.924;2023-09-12T02:02:00;11.20;;;9.50;;
9665;SDS011;4871;52.004;5.924;2023-09-12T02:03:01;11.20;;;9.50;;
9665;SDS011;4871;52.004;5.924;2023-09-12T02:04:00;11.20;;;9.50;;
9665;SDS011;4871;52.004;5.924;2023-09-12T02:05:03;11.20;;;9.50;;
9665;SDS011;4871;52.004;5.924;2023-09-12T02:06:00;11.20;;;9.50;;
9665;SDS011;4871;52.004;5.924;2023-09-12T02:07:00;11.20;;;9.50;;
9665;SDS011;4871;52.004;5.924;2023-09-12T02:08:01;11.20;;;9.50;;
9665;SDS011;4871;52.004;5.924;2023-09-12T02:09:00;11.20;;;9.50;;
9665;SDS011;4871;52.004;5.924;2023-09-12T02:10:00;11.20;;;9.50;;
9665;SDS011;4871;52.004;5.924;2023-09-12T02:11:00;11.20;;;9.50;;
9665;SDS011;4871;52.004;5.924;2023-09-12T02:12:00;11.20;;;9.50;;
9665;SDS011;4871;52.004;5.924;2023-09-12T02:13:00;11.20;;;9.50;;
9665;SDS011;4871;52.004;5.924;2023-09-12T02:14:00;11.20;;;9.50;;
9665;SDS011;4871;52.004;5.924;2023-09-12T02:15:00;11.20;;;9.50;;
9665;SDS011;4871;52.004;5.924;2023-09-12T02:16:00;11.20;;;9.50;;
9665;SDS011;4871;52.004;5.924;2023-09-12T02:17:00;11.20;;;9.50;;
9665;SDS011;4871;52.004;5.924;2023-09-12T02:18:00;12.20;;;10.40;;
9665;SDS011;4871;52.004;5.924;2023-09-12T02:19:00;12.20;;;10.40;;
9665;SDS011;4871;52.004;5.924;2023-09-12T02:20:00;12.20;;;10.40;;
9665;SDS011;4871;52.004;5.924;2023-09-12T02:21:00;12.20;;;10.40;;
9665;SDS011;4871;52.004;5.924;2023-09-12T02:22:00;12.20;;;10.40;;
9665;SDS011;4871;52.004;5.924;2023-09-12T02:23:00;12.20;;;10.40;;
9665;SDS011;4871;52.004;5.924;2023-09-12T02:24:00;12.20;;;10.40;;
9665;SDS011;4871;52.004;5.924;2023-09-12T02:25:00;12.20;;;10.40;;
9665;SDS011;4871;52.004;5.924;2023-09-12T02:26:00;12.20;;;10.40;;
9665;SDS011;4871;52.004;5.924;2023-09-12T02:27:00;12.20;;;10.40;;
9665;SDS011;4871;52.004;5.924;2023-09-12T02:28:00;12.20;;;10.40;;
9665;SDS011;4871;52.004;5.924;2023-09-12T02:29:00;12.20;;;10.40;;
9665;SDS011;4871;52.004;5.924;2023-09-12T02:30:00;12.20;;;10.40;;
9665;SDS011;4871;52.004;5.924;2023-09-12T02:31:00;12.20;;;10.40;;
9665;SDS011;4871;52.004;5.924;2023-09-12T02:32:00;12.20;;;10.40;;
9665;SDS011;4871;52.004;5.924;2023-09-12T02:33:00;12.20;;;10.40;;
9665;SDS011;4871;52.004;5.924;2023-09-12T02:34:00;12.20;;;10.40;;
9665;SDS011;4871;52.004;5.924;2023-09-12T02:35:00;12.20;;;10.40;;
9665;SDS011;4871;52.004;5.924;2023-09-12T02:36:00;12.20;;;10.40;;
9665;SDS011;4871;52.004;5.924;2023-09-12T02:37:00;12.20;;;10.40;;
9665;SDS011;4871;52.004;5.924;2023-09-12T02:38:00;12.20;;;10.40;;
9665;SDS011;4871;52.004;5.924;2023-09-12T02:39:00;12.20;;;10.40;;
9665;SDS011;4871;52.004;5.924;2023-09-12T02:40:00;12.20;;;10.40;;
9665;SDS011;4871;52.004;5.924;2023-09-12T02:41:01;12.20;;;10.40;;
9665;SDS011;4871;52.004;5.924;2023-09-12T02:42:00;12.20;;;10.40;;
9665;SDS011;4871;52.004;5.924;2023-09-12T02:43:00;12.20;;;10.40;;
9665;SDS011;4871;52.004;5.924;2023-09-12T02:44:00;12.20;;;10.40;;
9665;SDS011;4871;52.004;5.924;2023-09-12T02:45:00;12.20;;;10.40;;
9665;SDS011;4871;52.004;5.924;2023-09-12T02:46:00;12.20;;;10.40;;
9665;SDS011;4871;52.004;5.924;2023-09-12T02:47:00;12.20;;;10.40;;
9665;SDS011;4871;52.004;5.924;2023-09-12T02:48:00;13.00;;;11.20;;
9665;SDS011;4871;52.004;5.924;2023-09-12T02:49:00;13.00;;;11.20;;
9665;SDS011;4871;52.004;5.924;2023-09-12T02:50:00;13.00;;;11.20;;
9665;SDS011;4871;52.004;5.924;2023-09-12T02:51:00;13.00;;;11.20;;
9665;SDS011;4871;52.004;5.924;2023-09-12T02:52:00;13.00;;;11.20;;
9665;SDS011;4871;52.004;5.924;2023-09-12T02:53:00;13.00;;;11.20;;
9665;SDS011;4871;52.004;5.924;2023-09-12T02:54:00;13.00;;;11.20;;
9665;SDS011;4871;52.004;5.924;2023-09-12T02:55:00;13.00;;;11.20;;
9665;SDS011;4871;52.004;5.924;2023-09-12T02:56:00;13.00;;;11.20;;
9665;SDS011;4871;52.004;5.924;2023-09-12T02:57:00;13.00;;;11.20;;
9665;SDS011;4871;52.004;5.924;2023-09-12T02:58:00;13.00;;;11.20;;
9665;SDS011;4871;52.004;5.924;2023-09-12T02:59:00;13.00;;;11.20;;
9665;SDS011;4871;52.004;5.924;2023-09-12T03:00:00;13.00;;;11.20;;
9665;SDS011;4871;52.004;5.924;2023-09-12T03:01:01;13.00;;;11.20;;
9665;SDS011;4871;52.004;5.924;2023-09-12T03:02:00;13.00;;;11.20;;
9665;SDS011;4871;52.004;5.924;2023-09-12T03:03:00;13.00;;;11.20;;
9665;SDS011;4871;52.004;5.924;2023-09-12T03:04:00;13.00;;;11.20;;
9665;SDS011;4871;52.004;5.924;2023-09-12T03:05:01;13.00;;;11.20;;
9665;SDS011;4871;52.004;5.924;2023-09-12T03:06:00;13.00;;;11.20;;
9665;SDS011;4871;52.004;5.924;2023-09-12T03:07:00;13.00;;;11.20;;
9665;SDS011;4871;52.004;5.924;2023-09-12T03:08:00;13.00;;;11.20;;
9665;SDS011;4871;52.004;5.924;2023-09-12T03:09:00;13.00;;;11.20;;
9665;SDS011;4871;52.004;5.924;2023-09-12T03:10:00;13.00;;;11.20;;
9665;SDS011;4871;52.004;5.924;2023-09-12T03:11:02;13.00;;;11.20;;
9665;SDS011;4871;52.004;5.924;2023-09-12T03:12:00;13.00;;;11.20;;
9665;SDS011;4871;52.004;5.924;2023-09-12T03:13:00;13.00;;;11.20;;
9665;SDS011;4871;52.004;5.924;2023-09-12T03:14:00;13.00;;;11.20;;
9665;SDS011;4871;52.004;5.924;2023-09-12T03:15:00;13.00;;;11.20;;
9665;SDS011;4871;52.004;5.924;2023-09-12T03:16:00;13.00;;;11.20;;
9665;SDS011;4871;52.004;5.924;2023-09-12T03:17:00;13.00;;;11.20;;
9665;SDS011;4871;52.004;5.924;2023-09-12T03:18:00;10.30;;;9.20;;
9665;SDS011;4871;52.004;5.924;2023-09-12T03:19:02;10.30;;;9.20;;
9665;SDS011;4871;52.004;5.924;2023-09-12T03:20:01;10.30;;;9.20;;
9665;SDS011;4871;52.004;5.924;2023-09-12T03:21:00;10.30;;;9.20;;
9665;SDS011;4871;52.004;5.924;2023-09-12T03:22:00;10.30;;;9.20;;
9665;SDS011;4871;52.004;5.924;2023-09-12T03:23:00;10.30;;;9.20;;
9665;SDS011;4871;52.004;5.924;2023-09-12T03:24:00;10.30;;;9.20;;
9665;SDS011;4871;52.004;5.924;2023-09-12T03:25:00;10.30;;;9.20;;
9665;SDS011;4871;52.004;5.924;2023-09-12T03:26:01;10.30;;;9.20;;
9665;SDS011;4871;52.004;5.924;2023-09-12T03:27:00;10.30;;;9.20;;
9665;SDS011;4871;52.004;5.924;2023-09-12T03:28:00;10.30;;;9.20;;
9665;SDS011;4871;52.004;5.924;2023-09-12T03:29:00;10.30;;;9.20;;
9665;SDS011;4871;52.004;5.924;2023-09-12T03:30:00;10.30;;;9.20;;
9665;SDS011;4871;52.004;5.924;2023-09-12T03:31:03;10.30;;;9.20;;
9665;SDS011;4871;52.004;5.924;2023-09-12T03:32:00;10.30;;;9.20;;
9665;SDS011;4871;52.004;5.924;2023-09-12T03:33:00;10.30;;;9.20;;
9665;SDS011;4871;52.004;5.924;2023-09-12T03:34:00;10.30;;;9.20;;
9665;SDS011;4871;52.004;5.924;2023-09-12T03:35:00;10.30;;;9.20;;
9665;SDS011;4871;52.004;5.924;2023-09-12T03:36:00;10.30;;;9.20;;
9665;SDS011;4871;52.004;5.924;2023-09-12T03:37:00;10.30;;;9.20;;
9665;SDS011;4871;52.004;5.924;2023-09-12T03:38:00;10.30;;;9.20;;
9665;SDS011;4871;52.004;5.924;2023-09-12T03:39:00;10.30;;;9.20;;
9665;SDS011;4871;52.004;5.924;2023-09-12T03:40:00;10.30;;;9.20;;
9665;SDS011;4871;52.004;5.924;2023-09-12T03:41:00;10.30;;;9.20;;
9665;SDS011;4871;52.004;5.924;2023-09-12T03:42:00;10.30;;;9.20;;
9665;SDS011;4871;52.004;5.924;2023-09-12T03:43:00;10.30;;;9.20;;
9665;SDS011;4871;52.004;5.924;2023-09-12T03:44:00;10.30;;;9.20;;
9665;SDS011;4871;52.004;5.924;2023-09-12T03:45:00;10.30;;;9.20;;
9665;SDS011;4871;52.004;5.924;2023-09-12T03:46:00;10.30;;;9.20;;
9665;SDS011;4871;52.004;5.924;2023-09-12T03:47:00;10.30;;;9.20;;
9665;SDS011;4871;52.004;5.924;2023-09-12T03:48:00;11.20;;;9.80;;
9665;SDS011;4871;52.004;5.924;2023-09-12T03:49:00;11.20;;;9.80;;
9665;SDS011;4871;52.004;5.924;2023-09-12T03:50:00;11.20;;;9.80;;
9665;SDS011;4871;52.004;5.924;2023-09-12T03:51:01;11.20;;;9.80;;
9665;SDS011;4871;52.004;5.924;2023-09-12T03:52:00;11.20;;;9.80;;
9665;SDS011;4871;52.004;5.924;2023-09-12T03:53:00;11.20;;;9.80;;
9665;SDS011;4871;52.004;5.924;2023-09-12T03:54:00;11.20;;;9.80;;
9665;SDS011;4871;52.004;5.924;2023-09-12T03:55:00;11.20;;;9.80;;
9665;SDS011;4871;52.004;5.924;2023-09-12T03:56:00;11.20;;;9.80;;
9665;SDS011;4871;52.004;5.924;2023-09-12T03:57:00;11.20;;;9.80;;
9665;SDS011;4871;52.004;5.924;2023-09-12T03:58:00;11.20;;;9.80;;
9665;SDS011;4871;52.004;5.924;2023-09-12T03:59:00;11.20;;;9.80;;
9665;SDS011;4871;52.004;5.924;2023-09-12T04:00:00;11.20;;;9.80;;
9665;SDS011;4871;52.004;5.924;2023-09-12T04:01:00;11.20;;;9.80;;
9665;SDS011;4871;52.004;5.924;2023-09-12T04:02:01;11.20;;;9.80;;
9665;SDS011;4871;52.004;5.924;2023-09-12T04:03:00;11.20;;;9.80;;
9665;SDS011;4871;52.004;5.924;2023-09-12T04:04:00;11.20;;;9.80;;
9665;SDS011;4871;52.004;5.924;2023-09-12T04:05:00;11.20;;;9.80;;
9665;SDS011;4871;52.004;5.924;2023-09-12T04:06:00;11.20;;;9.80;;
9665;SDS011;4871;52.004;5.924;2023-09-12T04:07:01;11.20;;;9.80;;
9665;SDS011;4871;52.004;5.924;2023-09-12T04:08:00;11.20;;;9.80;;
9665;SDS011;4871;52.004;5.924;2023-09-12T04:09:00;11.20;;;9.80;;
9665;SDS011;4871;52.004;5.924;2023-09-12T04:10:00;11.20;;;9.80;;
9665;SDS011;4871;52.004;5.924;2023-09-12T04:11:00;11.20;;;9.80;;
9665;SDS011;4871;52.004;5.924;2023-09-12T04:12:01;11.20;;;9.80;;
9665;SDS011;4871;52.004;5.924;2023-09-12T04:13:00;11.20;;;9.80;;
9665;SDS011;4871;52.004;5.924;2023-09-12T04:14:00;11.20;;;9.80;;
9665;SDS011;4871;52.004;5.924;2023-09-12T04:15:00;11.20;;;9.80;;
9665;SDS011;4871;52.004;5.924;2023-09-12T04:16:00;11.20;;;9.80;;
9665;SDS011;4871;52.004;5.924;2023-09-12T04:17:00;11.20;;;9.80;;
9665;SDS011;4871;52.004;5.924;2023-09-12T04:18:01;15.30;;;12.30;;
9665;SDS011;4871;52.004;5.924;2023-09-12T04:19:00;15.30;;;12.30;;
9665;SDS011;4871;52.004;5.924;2023-09-12T04:20:00;15.30;;;12.30;;
9665;SDS011;4871;52.004;5.924;2023-09-12T04:21:00;15.30;;;12.30;;
9665;SDS011;4871;52.004;5.924;2023-09-12T04:22:00;15.30;;;12.30;;
9665;SDS011;4871;52.004;5.924;2023-09-12T04:23:00;15.30;;;12.30;;
9665;SDS011;4871;52.004;5.924;2023-09-12T04:24:00;15.30;;;12.30;;
9665;SDS011;4871;52.004;5.924;2023-09-12T04:25:00;15.30;;;12.30;;
9665;SDS011;4871;52.004;5.924;2023-09-12T04:26:03;15.30;;;12.30;;
9665;SDS011;4871;52.004;5.924;2023-09-12T04:27:00;15.30;;;12.30;;
9665;SDS011;4871;52.004;5.924;2023-09-12T04:28:00;15.30;;;12.30;;
9665;SDS011;4871;52.004;5.924;2023-09-12T04:29:00;15.30;;;12.30;;
9665;SDS011;4871;52.004;5.924;2023-09-12T04:30:00;15.30;;;12.30;;
9665;SDS011;4871;52.004;5.924;2023-09-12T04:31:01;15.30;;;12.30;;
9665;SDS011;4871;52.004;5.924;2023-09-12T04:32:01;15.30;;;12.30;;
9665;SDS011;4871;52.004;5.924;2023-09-12T04:33:00;15.30;;;12.30;;
9665;SDS011;4871;52.004;5.924;2023-09-12T04:34:00;15.30;;;12.30;;
9665;SDS011;4871;52.004;5.924;2023-09-12T04:35:00;15.30;;;12.30;;
9665;SDS011;4871;52.004;5.924;2023-09-12T04:36:00;15.30;;;12.30;;
9665;SDS011;4871;52.004;5.924;2023-09-12T04:37:02;15.30;;;12.30;;
9665;SDS011;4871;52.004;5.924;2023-09-12T04:38:00;15.30;;;12.30;;
9665;SDS011;4871;52.004;5.924;2023-09-12T04:39:00;15.30;;;12.30;;
9665;SDS011;4871;52.004;5.924;2023-09-12T04:40:00;15.30;;;12.30;;
9665;SDS011;4871;52.004;5.924;2023-09-12T04:41:04;15.30;;;12.30;;
9665;SDS011;4871;52.004;5.924;2023-09-12T04:42:00;15.30;;;12.30;;
9665;SDS011;4871;52.004;5.924;2023-09-12T04:43:00;15.30;;;12.30;;
9665;SDS011;4871;52.004;5.924;2023-09-12T04:44:02;15.30;;;12.30;;
9665;SDS011;4871;52.004;5.924;2023-09-12T04:45:00;15.30;;;12.30;;
9665;SDS011;4871;52.004;5.924;2023-09-12T04:46:00;15.30;;;12.30;;
9665;SDS011;4871;52.004;5.924;2023-09-12T04:47:00;15.30;;;12.30;;
9665;SDS011;4871;52.004;5.924;2023-09-12T04:48:00;18.10;;;14.50;;
9665;SDS011;4871;52.004;5.924;2023-09-12T04:49:00;18.10;;;14.50;;
9665;SDS011;4871;52.004;5.924;2023-09-12T04:50:01;18.10;;;14.50;;
9665;SDS011;4871;52.004;5.924;2023-09-12T04:51:00;18.10;;;14.50;;
9665;SDS011;4871;52.004;5.924;2023-09-12T04:52:00;18.10;;;14.50;;
9665;SDS011;4871;52.004;5.924;2023-09-12T04:53:00;18.10;;;14.50;;
9665;SDS011;4871;52.004;5.924;2023-09-12T04:54:00;18.10;;;14.50;;
9665;SDS011;4871;52.004;5.924;2023-09-12T04:55:00;18.10;;;14.50;;
9665;SDS011;4871;52.004;5.924;2023-09-12T04:56:00;18.10;;;14.50;;
9665;SDS011;4871;52.004;5.924;2023-09-12T04:57:00;18.10;;;14.50;;
9665;SDS011;4871;52.004;5.924;2023-09-12T04:58:00;18.10;;;14.50;;
9665;SDS011;4871;52.004;5.924;2023-09-12T04:59:00;18.10;;;14.50;;
9665;SDS011;4871;52.004;5.924;2023-09-12T05:00:00;18.10;;;14.50;;
9665;SDS011;4871;52.004;5.924;2023-09-12T05:01:00;18.10;;;14.50;;
9665;SDS011;4871;52.004;5.924;2023-09-12T05:02:00;18.10;;;14.50;;
9665;SDS011;4871;52.004;5.924;2023-09-12T05:03:01;18.10;;;14.50;;
9665;SDS011;4871;52.004;5.924;2023-09-12T05:04:00;18.10;;;14.50;;
9665;SDS011;4871;52.004;5.924;2023-09-12T05:05:00;18.10;;;14.50;;
9665;SDS011;4871;52.004;5.924;2023-09-12T05:06:00;18.10;;;14.50;;
9665;SDS011;4871;52.004;5.924;2023-09-12T05:07:00;18.10;;;14.50;;
9665;SDS011;4871;52.004;5.924;2023-09-12T05:08:00;18.10;;;14.50;;
9665;SDS011;4871;52.004;5.924;2023-09-12T05:09:00;18.10;;;14.50;;
9665;SDS011;4871;52.004;5.924;2023-09-12T05:10:00;18.10;;;14.50;;
9665;SDS011;4871;52.004;5.924;2023-09-12T05:11:00;18.10;;;14.50;;
9665;SDS011;4871;52.004;5.924;2023-09-12T05:12:00;18.10;;;14.50;;
9665;SDS011;4871;52.004;5.924;2023-09-12T05:13:00;18.10;;;14.50;;
9665;SDS011;4871;52.004;5.924;2023-09-12T05:14:00;18.10;;;14.50;;
9665;SDS011;4871;52.004;5.924;2023-09-12T05:15:00;18.10;;;14.50;;
9665;SDS011;4871;52.004;5.924;2023-09-12T05:16:00;18.10;;;14.50;;
9665;SDS011;4871;52.004;5.924;2023-09-12T05:17:01;18.10;;;14.50;;
9665;SDS011;4871;52.004;5.924;2023-09-12T05:18:00;23.80;;;20.10;;
9665;SDS011;4871;52.004;5.924;2023-09-12T05:19:00;23.80;;;20.10;;
9665;SDS011;4871;52.004;5.924;2023-09-12T05:20:00;23.80;;;20.10;;
9665;SDS011;4871;52.004;5.924;2023-09-12T05:21:00;23.80;;;20.10;;
9665;SDS011;4871;52.004;5.924;2023-09-12T05:22:00;23.80;;;20.10;;
9665;SDS011;4871;52.004;5.924;2023-09-12T05:23:00;23.80;;;20.10;;
9665;SDS011;4871;52.004;5.924;2023-09-12T05:24:00;23.80;;;20.10;;
9665;SDS011;4871;52.004;5.924;2023-09-12T05:25:00;23.80;;;20.10;;
9665;SDS011;4871;52.004;5.924;2023-09-12T05:26:00;23.80;;;20.10;;
9665;SDS011;4871;52.004;5.924;2023-09-12T05:27:00;23.80;;;20.10;;
9665;SDS011;4871;52.004;5.924;2023-09-12T05:28:00;23.80;;;20.10;;
9665;SDS011;4871;52.004;5.924;2023-09-12T05:29:00;23.80;;;20.10;;
9665;SDS011;4871;52.004;5.924;2023-09-12T05:30:00;23.80;;;20.10;;
9665;SDS011;4871;52.004;5.924;2023-09-12T05:31:00;23.80;;;20.10;;
9665;SDS011;4871;52.004;5.924;2023-09-12T05:32:00;23.80;;;20.10;;
9665;SDS011;4871;52.004;5.924;2023-09-12T05:33:01;23.80;;;20.10;;
9665;SDS011;4871;52.004;5.924;2023-09-12T05:34:00;23.80;;;20.10;;
9665;SDS011;4871;52.004;5.924;2023-09-12T05:35:00;23.80;;;20.10;;
9665;SDS011;4871;52.004;5.924;2023-09-12T05:36:00;23.80;;;20.10;;
9665;SDS011;4871;52.004;5.924;2023-09-12T05:37:00;23.80;;;20.10;;
9665;SDS011;4871;52.004;5.924;2023-09-12T05:38:00;23.80;;;20.10;;
9665;SDS011;4871;52.004;5.924;2023-09-12T05:39:00;23.80;;;20.10;;
9665;SDS011;4871;52.004;5.924;2023-09-12T05:40:00;23.80;;;20.10;;
9665;SDS011;4871;52.004;5.924;2023-09-12T05:41:00;23.80;;;20.10;;
9665;SDS011;4871;52.004;5.924;2023-09-12T05:42:00;23.80;;;20.10;;
9665;SDS011;4871;52.004;5.924;2023-09-12T05:43:00;23.80;;;20.10;;
9665;SDS011;4871;52.004;5.924;2023-09-12T05:44:00;23.80;;;20.10;;
9665;SDS011;4871;52.004;5.924;2023-09-12T05:45:00;23.80;;;20.10;;
9665;SDS011;4871;52.004;5.924;2023-09-12T05:46:00;23.80;;;20.10;;
9665;SDS011;4871;52.004;5.924;2023-09-12T05:47:00;23.80;;;20.10;;
9665;SDS011;4871;52.004;5.924;2023-09-12T05:48:00;31.20;;;25.10;;
9665;SDS011;4871;52.004;5.924;2023-09-12T05:49:00;31.20;;;25.10;;
9665;SDS011;4871;52.004;5.924;2023-09-12T05:50:00;31.20;;;25.10;;
9665;SDS011;4871;52.004;5.924;2023-09-12T05:51:00;31.20;;;25.10;;
9665;SDS011;4871;52.004;5.924;2023-09-12T05:52:00;31.20;;;25.10;;
9665;SDS011;4871;52.004;5.924;2023-09-12T05:53:00;31.20;;;25.10;;
9665;SDS011;4871;52.004;5.924;2023-09-12T05:54:01;31.20;;;25.10;;
9665;SDS011;4871;52.004;5.924;2023-09-12T05:55:00;31.20;;;25.10;;
9665;SDS011;4871;52.004;5.924;2023-09-12T05:56:00;31.20;;;25.10;;
9665;SDS011;4871;52.004;5.924;2023-09-12T05:57:00;31.20;;;25.10;;
9665;SDS011;4871;52.004;5.924;2023-09-12T05:58:00;31.20;;;25.10;;
9665;SDS011;4871;52.004;5.924;2023-09-12T05:59:00;31.20;;;25.10;;
9665;SDS011;4871;52.004;5.924;2023-09-12T06:00:01;31.20;;;25.10;;
9665;SDS011;4871;52.004;5.924;2023-09-12T06:01:00;31.20;;;25.10;;
9665;SDS011;4871;52.004;5.924;2023-09-12T06:02:00;31.20;;;25.10;;